»·PEaware :: N8735K KSNA-KWHP

N8735K :: KSNA-KWHP

FLIGHT INFORMATION

Flight Status: Arrived
Operator: Privately registered:
United States
More flights under this callsign
Pilot: Jeff K. (12978)
Aircraft: CESSNA 172 SKYHAWK
(C172)
More flights by this aircraft type
Origin: KSNA John Wayne-Orange Co
United States
Destination: KWHP Whiteman
United States
More flights between these airports :: More routes between these airports
Route: +
File this flight plan on PilotEdge
Remarks:
Altitude:
(Current/Filed)
0ft
Speed:
(Current/Filed)
0kts
Departed: 18-Jun-18 12:28 PM
Arrived: 18-Jun-18 01:08 PM
Distance/Time
Traveled:
44nm/0:40
Distance/Time
To Go:
Arrived

Flight Plot

Page will automatically refresh every two minutes.


Map Options




Map Legend


Flown Route
Filed Route
Departure Airport
Arrival Airport
Navaid (VOR, NDB)
Fix

Horizontal Profiles

Position Reports

Time Latitude Longitude Heading Altitude Ground
Speed
18-Jun-18 12:22 33.675754 -117.871532 220 60ft 0kts
18-Jun-18 12:23 33.675754 -117.871532 220 60ft 0kts
18-Jun-18 12:24 33.675754 -117.871532 220 60ft 0kts
18-Jun-18 12:25 33.677036 -117.869471 28 60ft 24kts
18-Jun-18 12:26 33.681254 -117.866573 93 60ft 0kts
18-Jun-18 12:27 33.680926 -117.865885 152 60ft 15kts
18-Jun-18 12:28 33.665344 -117.876483 231 652ft 85kts
18-Jun-18 12:29 33.652541 -117.900751 235 1484ft 87kts
18-Jun-18 12:30 33.639604 -117.925572 237 2126ft 88kts
18-Jun-18 12:31 33.631791 -117.953078 282 2425ft 101kts
18-Jun-18 12:32 33.641840 -117.985223 293 2395ft 104kts
18-Jun-18 12:33 33.655828 -118.015642 296 2405ft 104kts
18-Jun-18 12:34 33.671135 -118.045394 294 2418ft 104kts
18-Jun-18 12:35 33.684912 -118.076138 291 2427ft 104kts
18-Jun-18 12:36 33.695645 -118.107962 287 2457ft 104kts
18-Jun-18 12:37 33.705905 -118.139786 291 2399ft 101kts
18-Jun-18 12:38 33.718274 -118.170262 295 2390ft 101kts
18-Jun-18 12:39 33.732951 -118.199343 303 2387ft 101kts
18-Jun-18 12:40 33.750890 -118.225646 314 2387ft 102kts
18-Jun-18 12:41 33.775062 -118.244568 322 2395ft 103kts
18-Jun-18 12:42 33.798073 -118.265454 316 2394ft 102kts
18-Jun-18 12:43 33.819936 -118.287491 326 2397ft 104kts
18-Jun-18 12:44 33.844237 -118.306058 321 2412ft 103kts
18-Jun-18 12:45 33.867564 -118.326351 321 2405ft 104kts
18-Jun-18 12:46 33.890021 -118.347959 316 2356ft 102kts
18-Jun-18 12:47 33.912501 -118.367745 317 2373ft 100kts
18-Jun-18 12:48 33.932051 -118.389207 259 2473ft 90kts
18-Jun-18 12:49 33.927597 -118.376846 5 2417ft 93kts
18-Jun-18 12:50 33.948230 -118.394808 306 2276ft 92kts
18-Jun-18 12:51 33.965314 -118.419516 316 2433ft 101kts
18-Jun-18 12:52 33.990450 -118.435713 329 2527ft 101kts
18-Jun-18 12:53 34.013869 -118.453786 314 2868ft 97kts
18-Jun-18 12:54 34.033631 -118.478137 305 3027ft 104kts
18-Jun-18 12:55 34.051249 -118.506873 305 3087ft 108kts
18-Jun-18 12:56 34.071948 -118.533474 324 3037ft 111kts
18-Jun-18 12:57 34.095773 -118.553037 316 3031ft 101kts
18-Jun-18 12:58 34.111350 -118.577352 250 3154ft 94kts
18-Jun-18 12:59 34.105089 -118.563555 29 3081ft 106kts
18-Jun-18 13:00 34.131262 -118.549006 17 3093ft 105kts
18-Jun-18 13:01 34.158235 -118.536512 24 2979ft 104kts
18-Jun-18 13:02 34.181405 -118.514898 36 2910ft 104kts
18-Jun-18 13:03 34.203994 -118.492701 45 2925ft 107kts
18-Jun-18 13:04 34.223656 -118.466619 46 2898ft 106kts
18-Jun-18 13:05 34.240559 -118.439454 55 2409ft 90kts
18-Jun-18 13:06 34.259135 -118.439485 15 1942ft 72kts
18-Jun-18 13:07 34.265247 -118.419567 146 1212ft 70kts
18-Jun-18 13:08 34.259544 -118.413079 355 992ft 0kts
18-Jun-18 13:09 34.259797 -118.413160 14 993ft 9kts
18-Jun-18 13:10 34.260004 -118.413144 324 995ft 0kts
18-Jun-18 13:11 34.260004 -118.413144 324 995ft 0kts
18-Jun-18 13:12 34.260004 -118.413144 324 995ft 0kts
18-Jun-18 13:13 34.260004 -118.413144 324 995ft 0kts
18-Jun-18 13:14 34.260004 -118.413144 324 995ft 0kts
18-Jun-18 13:15 34.260004 -118.413144 324 995ft 0kts
18-Jun-18 13:16 34.260004 -118.413144 324 995ft 0kts
18-Jun-18 13:17 34.260004 -118.413144 324 995ft 0kts
18-Jun-18 13:18 34.260004 -118.413144 324 995ft 0kts
18-Jun-18 13:19 34.260004 -118.413144 324 995ft 0kts
18-Jun-18 13:20 34.260004 -118.413144 324 995ft 0kts
18-Jun-18 13:21 34.260004 -118.413144 324 995ft 0kts
18-Jun-18 13:22 34.260004 -118.413144 324 995ft 0kts

Navigation Log

Ident Type
Flight plan parsing failed, navigation log unavailable